Time;durP1;ratioP1;P1;durP2;ratioP2;P2;SDS_P1;SDS_P2;PMS_P1;PMS_P2;Temp;Humidity;BMP_temperature;BMP_pressure;BME280_temperature;BME280_humidity;BME280_pressure;Samples;Min_cycle;Max_cycle;Signal;HPM_P1;HPM_P2
2023/01/01 00:01:28;;;;;;;45.00;30.72;;;18.40;85.80;;;;;;1812229;79;21100;-82
2023/01/01 00:04:00;;;;;;;40.70;29.55;;;18.40;85.50;;;;;;1812423;78;21096;-83
2023/01/01 00:06:30;;;;;;;38.08;28.12;;;18.40;85.40;;;;;;1812332;79;21083;-81
2023/01/01 00:11:50;;;;;;;40.50;27.35;;;18.40;85.80;;;;;;1841029;78;21182;-81
2023/01/01 00:14:21;;;;;;;42.62;28.23;;;18.40;85.70;;;;;;1839535;78;21147;-82
2023/01/01 00:16:53;;;;;;;37.05;27.80;;;18.30;86.10;;;;;;1836538;78;21170;-81
2023/01/01 00:19:23;;;;;;;42.35;29.45;;;18.40;86.30;;;;;;1822949;78;21173;-83
2023/01/01 00:21:54;;;;;;;41.28;29.82;;;18.40;86.20;;;;;;1839654;78;21092;-81
2023/01/01 00:24:25;;;;;;;42.85;30.90;;;18.40;86.10;;;;;;1840025;78;21141;-82
2023/01/01 00:26:55;;;;;;;46.08;30.23;;;18.30;86.10;;;;;;1834236;78;21135;-81
2023/01/01 00:29:26;;;;;;;51.55;33.40;;;18.30;86.70;;;;;;1816923;78;21139;-81
2023/01/01 00:31:58;;;;;;;45.60;32.83;;;18.40;86.40;;;;;;1807968;78;21224;-82
2023/01/01 00:34:29;;;;;;;41.15;28.60;;;18.40;86.10;;;;;;1792651;79;21168;-82
2023/01/01 00:37:00;;;;;;;43.65;30.75;;;18.40;86.80;;;;;;1820089;78;21099;-82
2023/01/01 00:39:31;;;;;;;39.18;27.50;;;18.40;86.40;;;;;;1848307;77;21524;-82
2023/01/01 00:42:01;;;;;;;41.10;27.48;;;18.50;85.90;;;;;;1852432;76;21114;-82
2023/01/01 00:44:32;;;;;;;38.90;27.67;;;18.50;86.00;;;;;;1853693;76;21192;-83
2023/01/01 00:47:03;;;;;;;42.58;27.35;;;18.50;85.60;;;;;;1834057;77;21536;-82
2023/01/01 00:49:34;;;;;;;35.98;26.77;;;18.50;85.40;;;;;;1842063;77;21102;-82
2023/01/01 00:52:05;;;;;;;36.63;25.45;;;18.50;85.40;;;;;;1844501;77;21513;-82
2023/01/01 00:54:35;;;;;;;40.12;26.37;;;18.50;85.40;;;;;;1775687;80;21232;-82
2023/01/01 00:57:06;;;;;;;37.53;24.60;;;18.50;85.70;;;;;;1844249;77;21143;-83
2023/01/01 00:59:37;;;;;;;35.52;24.12;;;18.60;85.50;;;;;;1856741;77;21224;-82
2023/01/01 01:02:08;;;;;;;35.50;25.08;;;18.60;85.20;;;;;;1846865;76;21100;-82
2023/01/01 01:04:38;;;;;;;36.93;25.05;;;18.60;85.00;;;;;;1855452;77;21197;-82
2023/01/01 01:07:09;;;;;;;37.60;24.43;;;18.70;85.00;;;;;;1841991;77;21091;-82
2023/01/01 01:09:40;;;;;;;35.30;24.12;;;18.70;84.90;;;;;;1843700;77;21091;-82
2023/01/01 01:12:10;;;;;;;34.75;23.73;;;18.70;84.80;;;;;;1835277;77;21194;-82
2023/01/01 01:14:42;;;;;;;33.02;23.83;;;18.80;84.60;;;;;;1830717;76;21142;-82
2023/01/01 01:17:13;;;;;;;34.85;23.62;;;18.80;84.00;;;;;;1841476;77;21104;-82
2023/01/01 01:19:44;;;;;;;34.33;23.80;;;18.90;84.20;;;;;;1853524;77;21153;-82
2023/01/01 01:22:15;;;;;;;29.70;22.48;;;18.90;84.00;;;;;;1838969;77;21200;-83
2023/01/01 01:24:47;;;;;;;31.33;22.10;;;18.90;84.80;;;;;;1856565;76;21280;-81
2023/01/01 01:27:18;;;;;;;33.48;22.95;;;18.90;84.00;;;;;;1820583;77;21107;-83
2023/01/01 01:29:48;;;;;;;35.40;22.77;;;19.00;83.70;;;;;;1839571;76;21103;-84
2023/01/01 01:32:19;;;;;;;35.35;23.85;;;19.00;83.80;;;;;;1855449;75;21248;-83
2023/01/01 01:34:50;;;;;;;30.32;21.85;;;19.20;83.30;;;;;;1854769;75;21674;-82
2023/01/01 01:37:21;;;;;;;33.30;22.62;;;19.20;83.00;;;;;;1864542;77;21153;-83
2023/01/01 01:39:52;;;;;;;33.08;23.15;;;19.30;82.50;;;;;;1845129;76;21162;-82
2023/01/01 01:42:23;;;;;;;31.27;21.45;;;19.30;82.20;;;;;;1861677;75;21154;-83
2023/01/01 01:44:58;;;;;;;33.42;22.93;;;19.30;82.20;;;;;;1877655;75;21215;-81
2023/01/01 01:47:32;;;;;;;29.67;21.73;;;19.30;82.00;;;;;;1863003;77;21091;-82
2023/01/01 01:50:32;;;;;;;37.42;24.43;;;19.20;82.40;;;;;;1859029;77;21301;-83
2023/01/01 01:53:06;;;;;;;31.90;22.70;;;19.30;82.30;;;;;;1869323;75;21118;-81
2023/01/01 01:55:39;;;;;;;34.83;23.45;;;19.30;82.10;;;;;;1836729;77;21148;-83
2023/01/01 01:58:13;;;;;;;31.68;23.22;;;19.30;81.90;;;;;;1826052;77;21148;-83
2023/01/01 02:00:44;;;;;;;34.67;23.70;;;19.30;81.60;;;;;;1794781;79;21155;-82
2023/01/01 02:03:33;;;;;;;32.30;23.18;;;19.30;81.90;;;;;;1794447;80;21132;-82
2023/01/01 02:06:04;;;;;;;34.40;22.80;;;19.40;82.10;;;;;;1829623;78;21186;-82
2023/01/01 02:08:38;;;;;;;31.40;22.32;;;19.30;82.10;;;;;;1828289;78;21135;-83
2023/01/01 02:11:07;;;;;;;33.10;23.40;;;19.40;82.20;;;;;;1814133;78;21161;-83
2023/01/01 02:13:38;;;;;;;33.80;23.32;;;19.40;82.00;;;;;;1820439;78;21100;-82
2023/01/01 02:16:14;;;;;;;32.40;22.60;;;19.50;82.00;;;;;;1796496;80;21200;-82
2023/01/01 02:18:54;;;;;;;32.55;22.17;;;19.60;81.80;;;;;;1817906;77;21150;-83
2023/01/01 02:21:27;;;;;;;32.40;22.17;;;19.70;81.60;;;;;;1818325;78;21063;-84
2023/01/01 02:24:18;;;;;;;30.75;22.42;;;19.80;81.00;;;;;;1791548;80;21107;-81
2023/01/01 02:27:12;;;;;;;31.85;22.60;;;20.00;80.50;;;;;;1773623;80;21103;-69
2023/01/01 02:29:48;;;;;;;32.17;21.75;;;20.00;80.10;;;;;;1879764;74;21146;-69
2023/01/01 02:32:28;;;;;;;29.10;21.13;;;20.10;79.90;;;;;;1917417;74;21543;-69
2023/01/01 02:37:58;;;;;;;29.87;21.17;;;20.30;78.40;;;;;;1928247;73;21589;-70
2023/01/01 02:40:31;;;;;;;35.15;20.90;;;20.30;78.70;;;;;;1920630;75;21078;-70
2023/01/01 02:43:03;;;;;;;28.55;20.25;;;20.40;78.60;;;;;;1913657;75;21641;-70
2023/01/01 02:45:34;;;;;;;25.90;19.30;;;20.40;78.10;;;;;;1904549;75;21055;-70
2023/01/01 02:48:07;;;;;;;27.05;19.42;;;20.40;77.50;;;;;;1926663;73;21059;-70
2023/01/01 02:50:38;;;;;;;27.98;20.27;;;20.40;77.90;;;;;;1920040;75;21144;-70
2023/01/01 02:53:20;;;;;;;27.73;20.12;;;20.40;77.50;;;;;;1908911;75;21066;-70
2023/01/01 02:55:54;;;;;;;26.17;18.77;;;20.40;77.30;;;;;;1839332;78;21524;-69
2023/01/01 03:01:46;;;;;;;29.63;20.10;;;20.40;77.30;;;;;;1809858;79;21512;-71
2023/01/01 03:04:22;;;;;;;28.67;19.48;;;20.50;77.10;;;;;;1846248;76;21076;-68
2023/01/01 03:07:01;;;;;;;29.45;20.05;;;20.50;77.40;;;;;;1941682;73;21104;-70
2023/01/01 03:09:47;;;;;;;27.37;18.40;;;20.60;77.70;;;;;;1919903;75;21573;-68
2023/01/01 03:12:38;;;;;;;27.58;19.12;;;20.70;77.40;;;;;;1917994;75;21087;-70
2023/01/01 03:15:04;;;;;;;26.10;18.55;;;20.80;77.20;;;;;;1841406;76;21532;-70
2023/01/01 03:17:38;;;;;;;22.70;18.40;;;20.80;75.90;;;;;;1871701;77;21166;-70
2023/01/01 03:20:17;;;;;;;22.67;17.62;;;20.80;75.60;;;;;;1840742;76;21156;-70
2023/01/01 03:22:50;;;;;;;27.10;17.62;;;20.90;75.60;;;;;;1917881;73;21064;-71
2023/01/01 03:25:23;;;;;;;25.12;17.98;;;21.00;76.70;;;;;;1920364;75;21059;-70
2023/01/01 03:27:57;;;;;;;24.15;17.10;;;21.10;75.70;;;;;;1905202;74;21126;-70
2023/01/01 03:30:31;;;;;;;23.70;17.75;;;21.10;74.60;;;;;;1887717;76;21082;-70
2023/01/01 03:33:04;;;;;;;21.73;15.65;;;21.30;74.00;;;;;;1895116;75;21118;-71
2023/01/01 03:36:12;;;;;;;26.90;16.55;;;21.30;73.80;;;;;;1919934;75;21170;-70
2023/01/01 03:38:54;;;;;;;22.55;16.80;;;21.40;73.60;;;;;;1899465;74;21534;-69
2023/01/01 03:41:43;;;;;;;25.62;17.40;;;21.60;73.20;;;;;;1912676;74;21039;-70
2023/01/01 03:44:19;;;;;;;25.32;17.37;;;21.60;72.30;;;;;;1885017;76;21083;-69
2023/01/01 03:46:50;;;;;;;23.57;17.73;;;21.70;71.70;;;;;;1887215;76;21605;-70
2023/01/01 03:49:22;;;;;;;22.65;16.73;;;21.80;71.70;;;;;;1901244;74;21120;-70
2023/01/01 03:51:55;;;;;;;25.43;16.97;;;21.80;71.90;;;;;;1902572;74;21593;-71
2023/01/01 03:54:38;;;;;;;23.95;18.20;;;21.80;71.30;;;;;;1898281;74;21140;-70
2023/01/01 03:57:30;;;;;;;25.15;17.57;;;21.90;71.30;;;;;;1861272;77;21625;-71
2023/01/01 04:00:18;;;;;;;25.88;17.77;;;22.00;71.50;;;;;;1906445;74;21527;-70
2023/01/01 04:02:50;;;;;;;26.60;17.65;;;22.00;71.10;;;;;;1899965;74;21129;-70
2023/01/01 04:05:23;;;;;;;24.35;17.73;;;22.10;71.60;;;;;;1892740;74;21070;-69
2023/01/01 04:07:54;;;;;;;23.07;17.00;;;22.20;71.00;;;;;;1899113;74;21518;-70
2023/01/01 04:10:26;;;;;;;28.52;18.20;;;22.30;71.10;;;;;;1915151;74;21067;-69
2023/01/01 04:12:57;;;;;;;27.00;17.65;;;22.40;70.80;;;;;;1895679;74;21149;-70
2023/01/01 04:15:30;;;;;;;22.13;16.35;;;22.50;70.50;;;;;;1889360;76;21195;-69
2023/01/01 04:18:02;;;;;;;21.68;16.70;;;22.60;69.90;;;;;;1893594;74;21074;-68
2023/01/01 04:20:33;;;;;;;25.40;16.50;;;22.80;70.20;;;;;;1893683;75;21232;-69
2023/01/01 04:23:05;;;;;;;22.40;16.73;;;22.80;69.90;;;;;;1895884;75;21102;-69
2023/01/01 04:25:36;;;;;;;22.50;16.60;;;22.90;69.00;;;;;;1898074;75;21144;-70
2023/01/01 04:28:06;;;;;;;25.45;17.27;;;23.00;69.10;;;;;;1906439;74;21054;-69
2023/01/01 04:30:38;;;;;;;21.93;17.45;;;23.10;68.80;;;;;;1911966;74;21530;-69
2023/01/01 04:33:07;;;;;;;21.95;16.75;;;23.10;68.10;;;;;;1895841;75;21086;-69
2023/01/01 04:35:38;;;;;;;24.35;17.15;;;23.20;67.90;;;;;;1896377;75;21082;-69
2023/01/01 04:38:11;;;;;;;23.12;16.90;;;23.20;67.30;;;;;;1893185;75;21094;-70
2023/01/01 04:40:43;;;;;;;22.77;15.90;;;23.30;67.30;;;;;;1893242;76;21483;-71
2023/01/01 04:43:15;;;;;;;21.48;16.48;;;23.40;68.00;;;;;;1897875;74;21083;-70
2023/01/01 04:45:47;;;;;;;22.87;16.30;;;23.40;67.40;;;;;;1894380;75;21069;-70
2023/01/01 04:48:21;;;;;;;23.47;16.97;;;23.40;67.30;;;;;;1899358;75;21089;-70
2023/01/01 04:53:50;;;;;;;22.55;17.15;;;23.50;66.50;;;;;;1815905;77;21527;-71
2023/01/01 04:56:42;;;;;;;20.72;15.98;;;23.50;67.20;;;;;;1835016;77;21216;-71
2023/01/01 04:59:13;;;;;;;20.27;16.00;;;23.60;66.50;;;;;;1875366;76;21157;-71
2023/01/01 05:02:04;;;;;;;19.87;15.80;;;23.50;66.10;;;;;;1873498;75;21722;-70
2023/01/01 05:04:35;;;;;;;20.92;16.30;;;23.50;65.60;;;;;;1866817;76;21080;-71
2023/01/01 05:07:06;;;;;;;20.35;15.40;;;23.50;66.30;;;;;;1916774;73;21123;-71
2023/01/01 05:09:37;;;;;;;21.82;16.70;;;23.50;66.20;;;;;;1831720;76;21091;-70
2023/01/01 05:12:09;;;;;;;21.40;16.55;;;23.50;65.60;;;;;;1918085;75;21436;-70
2023/01/01 05:14:41;;;;;;;22.40;16.05;;;23.50;65.90;;;;;;1861145;76;21142;-70
2023/01/01 05:17:32;;;;;;;23.60;16.82;;;23.50;65.50;;;;;;1910634;73;21165;-70
2023/01/01 05:20:03;;;;;;;23.83;18.10;;;23.40;65.50;;;;;;1841506;78;21094;-69
2023/01/01 05:25:26;;;;;;;21.52;16.50;;;23.50;65.70;;;;;;1889980;75;21610;-69
2023/01/01 05:27:57;;;;;;;21.40;16.32;;;23.50;65.90;;;;;;1846604;77;21119;-70
2023/01/01 05:30:28;;;;;;;20.85;16.10;;;23.50;66.10;;;;;;1866875;76;21060;-70
2023/01/01 05:33:00;;;;;;;23.35;16.55;;;23.50;65.50;;;;;;1880707;76;21167;-71
2023/01/01 05:35:32;;;;;;;24.67;16.35;;;23.50;66.00;;;;;;1880787;76;21065;-71
2023/01/01 05:38:03;;;;;;;22.98;16.07;;;23.50;65.00;;;;;;1864812;76;21104;-71
2023/01/01 05:40:35;;;;;;;21.60;15.80;;;23.50;65.10;;;;;;1801048;79;21139;-69
2023/01/01 05:43:08;;;;;;;21.50;16.93;;;23.60;65.90;;;;;;1901786;75;21048;-69
2023/01/01 05:45:39;;;;;;;23.32;15.83;;;23.60;65.30;;;;;;1910023;74;21123;-71
2023/01/01 05:48:11;;;;;;;23.35;16.93;;;23.60;66.30;;;;;;1851967;76;21141;-71
2023/01/01 05:50:42;;;;;;;19.32;15.05;;;23.70;65.20;;;;;;1828147;77;21282;-68
2023/01/01 05:53:13;;;;;;;19.98;15.40;;;23.70;65.10;;;;;;1874433;76;21135;-72
2023/01/01 05:58:36;;;;;;;20.27;15.23;;;23.70;65.10;;;;;;1927182;74;21058;-69
2023/01/01 06:01:15;;;;;;;20.37;15.95;;;23.80;65.10;;;;;;1924488;73;21581;-69
2023/01/01 06:03:51;;;;;;;20.40;14.60;;;23.90;64.20;;;;;;1879258;74;21191;-70
2023/01/01 06:06:21;;;;;;;21.00;14.33;;;24.10;64.60;;;;;;1887105;75;21640;-71
2023/01/01 06:09:00;;;;;;;18.70;14.35;;;24.20;64.60;;;;;;1887730;76;21091;-71
2023/01/01 06:11:32;;;;;;;17.85;14.18;;;24.30;63.70;;;;;;1856208;76;21531;-71
2023/01/01 06:14:03;;;;;;;19.70;14.30;;;24.40;63.30;;;;;;1866807;76;21095;-69
2023/01/01 06:16:34;;;;;;;19.48;14.95;;;24.50;63.20;;;;;;1893077;75;21150;-72
2023/01/01 06:19:05;;;;;;;18.45;14.53;;;24.60;61.80;;;;;;1890160;74;21225;-71
2023/01/01 06:21:56;;;;;;;19.37;15.32;;;24.70;62.30;;;;;;1892969;74;21147;-71
2023/01/01 06:24:27;;;;;;;19.20;14.50;;;24.80;61.60;;;;;;1895116;74;21538;-72
2023/01/01 06:27:20;;;;;;;19.35;14.65;;;24.80;61.00;;;;;;1934016;74;21126;-71
2023/01/01 06:29:51;;;;;;;19.70;15.63;;;24.80;61.30;;;;;;1896325;74;21153;-71
2023/01/01 06:32:22;;;;;;;22.98;15.13;;;24.80;61.30;;;;;;1898765;74;21122;-72
2023/01/01 06:34:53;;;;;;;24.30;16.62;;;24.90;61.10;;;;;;1855330;77;21165;-70
2023/01/01 06:37:24;;;;;;;17.60;14.80;;;25.10;61.20;;;;;;1823842;78;21469;-71
2023/01/01 06:39:56;;;;;;;21.55;15.43;;;25.20;60.70;;;;;;1822304;79;21162;-71
2023/01/01 06:42:27;;;;;;;18.07;14.33;;;25.30;60.00;;;;;;1841443;78;21544;-71
2023/01/01 06:45:00;;;;;;;20.85;14.53;;;25.40;59.80;;;;;;1838892;78;21132;-72
2023/01/01 06:47:33;;;;;;;20.12;14.78;;;25.50;59.20;;;;;;1824453;79;21101;-71
2023/01/01 06:50:05;;;;;;;19.75;13.83;;;25.60;59.30;;;;;;1805865;78;21507;-72
2023/01/01 06:52:37;;;;;;;16.05;13.80;;;25.60;58.80;;;;;;1825256;78;21567;-71
2023/01/01 06:55:09;;;;;;;18.32;13.60;;;25.70;58.50;;;;;;1840894;78;21084;-71
2023/01/01 06:58:00;;;;;;;21.87;15.50;;;25.70;58.70;;;;;;1865979;77;21578;-70
2023/01/01 07:00:31;;;;;;;18.10;14.80;;;25.70;58.20;;;;;;1839921;77;21110;-71
2023/01/01 07:03:02;;;;;;;18.40;14.35;;;25.80;58.40;;;;;;1878297;75;21403;-71
2023/01/01 07:05:53;;;;;;;16.32;13.58;;;25.80;58.00;;;;;;1810953;79;21119;-71
2023/01/01 07:08:25;;;;;;;19.35;15.40;;;25.80;58.10;;;;;;1800718;78;21121;-71
2023/01/01 07:10:56;;;;;;;17.75;14.13;;;25.80;57.50;;;;;;1756476;81;21282;-72
2023/01/01 07:13:29;;;;;;;23.83;14.98;;;25.90;57.60;;;;;;1745634;81;21117;-72
2023/01/01 07:15:59;;;;;;;23.75;13.78;;;25.90;58.00;;;;;;1754013;81;21124;-72
2023/01/01 07:18:32;;;;;;;16.17;13.40;;;25.90;58.60;;;;;;1756379;82;21138;-71
2023/01/01 07:21:07;;;;;;;18.45;13.25;;;25.90;58.00;;;;;;1745184;81;21583;-71
2023/01/01 07:23:38;;;;;;;17.48;13.43;;;25.90;58.20;;;;;;1744854;81;21195;-71
2023/01/01 07:26:10;;;;;;;15.72;12.10;;;26.00;57.70;;;;;;1741826;81;21124;-71
2023/01/01 07:28:41;;;;;;;16.85;11.97;;;26.00;57.70;;;;;;1739699;82;21128;-71
2023/01/01 07:31:12;;;;;;;17.27;12.20;;;26.00;57.20;;;;;;1740163;82;21116;-71
2023/01/01 07:33:46;;;;;;;18.00;11.75;;;26.00;56.40;;;;;;1739676;82;21220;-71
2023/01/01 07:36:16;;;;;;;14.83;11.20;;;26.00;56.70;;;;;;1727222;82;21124;-72
2023/01/01 07:38:48;;;;;;;16.82;12.47;;;26.00;57.30;;;;;;1740136;82;21128;-72
2023/01/01 07:41:18;;;;;;;14.87;11.78;;;26.00;57.30;;;;;;1739645;82;21168;-72
2023/01/01 07:43:50;;;;;;;17.82;11.97;;;26.00;56.70;;;;;;1740101;82;21186;-72
2023/01/01 07:46:21;;;;;;;17.98;12.37;;;26.00;57.00;;;;;;1762635;79;21095;-71
2023/01/01 07:48:53;;;;;;;16.23;12.73;;;26.10;56.80;;;;;;1758938;80;21626;-71
2023/01/01 07:51:24;;;;;;;19.17;13.15;;;26.10;56.70;;;;;;1747498;82;21112;-72
2023/01/01 07:53:55;;;;;;;15.65;12.23;;;26.10;56.50;;;;;;1729978;82;21124;-72
2023/01/01 07:59:18;;;;;;;13.55;11.40;;;26.00;55.90;;;;;;1817531;77;21538;-71
2023/01/01 08:01:49;;;;;;;15.83;12.07;;;26.10;55.90;;;;;;1866143;76;21084;-71
2023/01/01 08:04:20;;;;;;;17.12;11.95;;;26.00;55.50;;;;;;1858956;77;21573;-71
2023/01/01 08:06:51;;;;;;;15.98;11.63;;;26.00;55.80;;;;;;1824782;78;21146;-71
2023/01/01 08:09:22;;;;;;;13.38;10.90;;;26.00;56.20;;;;;;1793920;80;21213;-71
2023/01/01 08:11:53;;;;;;;16.17;12.18;;;26.00;55.90;;;;;;1793285;80;21169;-71
2023/01/01 08:14:26;;;;;;;14.63;11.43;;;26.00;56.10;;;;;;1778513;80;21511;-71
2023/01/01 08:16:57;;;;;;;14.30;10.88;;;26.00;56.50;;;;;;1811846;79;21158;-72
2023/01/01 08:22:19;;;;;;;14.28;11.83;;;26.00;55.70;;;;;;1833252;77;21096;-72
2023/01/01 08:27:42;;;;;;;14.98;11.20;;;25.90;55.90;;;;;;1920714;74;21133;-73
2023/01/01 08:30:15;;;;;;;15.65;11.15;;;25.90;56.30;;;;;;1897348;74;21133;-72
2023/01/01 08:32:46;;;;;;;13.08;10.55;;;25.80;56.40;;;;;;1853278;77;21117;-71
2023/01/01 08:35:17;;;;;;;17.17;10.35;;;25.80;56.60;;;;;;1891177;76;21151;-71
2023/01/01 08:37:48;;;;;;;13.62;10.30;;;25.80;56.50;;;;;;1915720;74;21063;-72
2023/01/01 08:40:20;;;;;;;13.85;10.05;;;25.90;56.60;;;;;;1893936;76;21594;-71
2023/01/01 08:42:51;;;;;;;11.90;10.50;;;25.90;56.80;;;;;;1892095;76;21107;-70
2023/01/01 08:45:22;;;;;;;10.70;9.60;;;25.90;56.50;;;;;;1896968;74;21133;-71
2023/01/01 08:47:54;;;;;;;12.37;9.78;;;25.90;56.10;;;;;;1909448;74;21531;-70
2023/01/01 08:50:25;;;;;;;14.45;10.55;;;25.90;56.10;;;;;;1923059;74;21059;-71
2023/01/01 08:52:57;;;;;;;14.75;10.72;;;25.80;55.80;;;;;;1926984;74;21132;-72
2023/01/01 08:55:28;;;;;;;12.15;9.38;;;25.80;56.20;;;;;;1912177;74;21534;-73
2023/01/01 08:58:02;;;;;;;12.78;10.30;;;25.80;56.50;;;;;;1859359;76;21063;-72
2023/01/01 09:00:34;;;;;;;14.05;10.88;;;25.80;56.30;;;;;;1897067;74;21666;-72
2023/01/01 09:03:07;;;;;;;12.18;10.20;;;25.70;56.40;;;;;;1901554;74;21602;-73
2023/01/01 09:05:38;;;;;;;13.58;9.55;;;25.80;56.20;;;;;;1894994;74;21115;-73
2023/01/01 09:08:09;;;;;;;13.98;10.75;;;25.80;56.20;;;;;;1890495;76;21157;-72
2023/01/01 09:10:45;;;;;;;14.00;10.48;;;25.70;56.40;;;;;;1883397;76;21093;-72
2023/01/01 09:13:19;;;;;;;12.90;10.05;;;25.70;56.30;;;;;;1915953;74;21590;-72
2023/01/01 09:15:52;;;;;;;14.15;10.28;;;25.70;56.50;;;;;;1889999;74;21149;-71
2023/01/01 09:18:23;;;;;;;12.58;10.43;;;25.70;57.00;;;;;;1899087;74;21083;-71
2023/01/01 09:20:54;;;;;;;12.93;10.30;;;25.70;56.80;;;;;;1861156;76;21143;-71
2023/01/01 09:23:25;;;;;;;13.43;10.48;;;25.70;56.30;;;;;;1906605;75;21087;-72
2023/01/01 09:25:57;;;;;;;14.30;10.50;;;25.70;56.60;;;;;;1892830;75;21508;-72
2023/01/01 09:28:37;;;;;;;11.90;10.03;;;25.60;56.50;;;;;;1910903;74;21598;-71
2023/01/01 09:31:06;;;;;;;15.00;11.30;;;25.60;56.90;;;;;;1872876;76;21445;-72
2023/01/01 09:33:41;;;;;;;13.15;10.90;;;25.60;57.00;;;;;;1839039;76;21547;-72
2023/01/01 09:36:17;;;;;;;13.88;11.12;;;25.50;56.80;;;;;;1890621;76;21079;-72
2023/01/01 09:39:05;;;;;;;15.40;12.10;;;25.50;57.30;;;;;;1906498;74;21198;-72
2023/01/01 09:41:48;;;;;;;17.27;11.70;;;25.50;57.40;;;;;;1848358;77;21140;-72
2023/01/01 09:44:48;;;;;;;15.20;11.60;;;25.50;57.60;;;;;;1875652;76;21101;-87
2023/01/01 09:47:24;;;;;;;15.05;11.57;;;25.40;57.50;;;;;;1867653;76;21097;-83
2023/01/01 09:50:14;;;;;;;13.20;10.90;;;25.40;57.80;;;;;;1847368;78;21164;-84
2023/01/01 09:52:34;;;;;;;14.68;11.97;;;25.40;57.90;;;;;;1842151;78;21163;-82
2023/01/01 09:55:07;;;;;;;16.57;11.45;;;25.40;57.90;;;;;;1846755;77;21137;-83
2023/01/01 09:57:41;;;;;;;17.23;11.35;;;25.30;57.80;;;;;;1847522;77;21077;-84
2023/01/01 10:00:19;;;;;;;14.93;11.12;;;25.30;57.90;;;;;;1865477;76;21146;-84
2023/01/01 10:03:23;;;;;;;18.32;11.43;;;25.30;58.10;;;;;;1858014;76;21660;-84
2023/01/01 10:06:20;;;;;;;16.62;11.60;;;25.20;57.90;;;;;;1848146;77;21596;-84
2023/01/01 10:09:07;;;;;;;16.12;11.45;;;25.10;58.20;;;;;;1866112;77;21138;-83
2023/01/01 10:11:41;;;;;;;15.63;12.75;;;25.10;58.50;;;;;;1868720;76;21114;-84
2023/01/01 10:14:24;;;;;;;18.05;12.20;;;25.10;58.70;;;;;;1856931;76;22014;-83
2023/01/01 10:16:58;;;;;;;16.77;12.20;;;25.00;58.70;;;;;;1846378;77;21096;-85
2023/01/01 10:19:39;;;;;;;18.02;13.08;;;25.00;58.80;;;;;;1846630;76;21186;-83
2023/01/01 10:22:17;;;;;;;19.20;13.60;;;25.00;59.10;;;;;;1837424;77;21601;-85
2023/01/01 10:25:10;;;;;;;18.90;13.50;;;24.90;59.00;;;;;;1826929;78;21547;-83
2023/01/01 10:27:59;;;;;;;18.20;13.90;;;24.80;59.10;;;;;;1838241;77;21109;-83
2023/01/01 10:30:31;;;;;;;18.92;13.80;;;24.80;59.40;;;;;;1845504;77;21083;-84
2023/01/01 10:33:02;;;;;;;17.52;12.88;;;24.80;59.60;;;;;;1849086;77;21179;-84
2023/01/01 10:35:43;;;;;;;19.02;14.33;;;24.80;59.60;;;;;;1829495;77;21091;-82
2023/01/01 10:38:18;;;;;;;17.97;13.33;;;24.70;59.90;;;;;;1843364;76;21245;-82
2023/01/01 10:41:00;;;;;;;17.65;13.25;;;24.70;60.00;;;;;;1855172;76;21076;-83
2023/01/01 10:43:30;;;;;;;18.02;12.88;;;24.60;60.00;;;;;;1877988;76;21666;-84
2023/01/01 10:46:03;;;;;;;20.35;13.75;;;24.60;60.20;;;;;;1863339;76;21133;-84
2023/01/01 10:48:36;;;;;;;19.73;14.33;;;24.60;60.40;;;;;;1885882;76;21204;-84
2023/01/01 10:51:16;;;;;;;16.93;12.93;;;24.50;60.50;;;;;;1855564;76;21551;-82
2023/01/01 10:53:59;;;;;;;18.70;13.55;;;24.50;60.60;;;;;;1833149;77;21168;-82
2023/01/01 10:56:42;;;;;;;19.02;13.75;;;24.40;60.80;;;;;;1857858;76;21626;-82
2023/01/01 10:59:34;;;;;;;20.00;14.63;;;24.40;60.90;;;;;;1894659;76;21087;-83
2023/01/01 11:02:22;;;;;;;18.00;13.88;;;24.40;61.20;;;;;;1820751;79;21197;-83
2023/01/01 11:05:20;;;;;;;18.77;13.93;;;24.30;61.20;;;;;;1827923;77;21588;-83
2023/01/01 11:07:54;;;;;;;19.02;13.90;;;24.30;61.40;;;;;;1804718;79;21579;-83
2023/01/01 11:10:31;;;;;;;19.07;13.22;;;24.20;61.90;;;;;;1819070;79;21220;-85
2023/01/01 11:13:05;;;;;;;23.27;14.50;;;24.20;61.60;;;;;;1839904;76;21147;-83
2023/01/01 11:15:42;;;;;;;18.80;14.35;;;24.20;61.70;;;;;;1882512;76;21132;-82
2023/01/01 11:18:23;;;;;;;17.77;14.35;;;24.20;62.00;;;;;;1877967;76;21145;-83
2023/01/01 11:20:59;;;;;;;19.48;14.63;;;24.20;62.00;;;;;;1932092;74;21071;-83
2023/01/01 11:23:43;;;;;;;21.27;15.32;;;24.10;62.10;;;;;;1919177;74;21228;-81
2023/01/01 11:26:27;;;;;;;23.07;15.63;;;24.10;62.20;;;;;;1894629;74;21559;-81
2023/01/01 11:29:18;;;;;;;21.48;14.30;;;24.10;62.20;;;;;;1871713;76;21105;-80
2023/01/01 11:31:51;;;;;;;21.97;15.68;;;24.00;62.30;;;;;;1867122;76;21621;-81
2023/01/01 11:34:35;;;;;;;23.45;15.58;;;24.00;62.50;;;;;;1862608;77;21089;-82
2023/01/01 11:37:27;;;;;;;22.58;15.32;;;24.00;62.60;;;;;;1886736;76;21122;-84
2023/01/01 11:39:58;;;;;;;24.20;16.12;;;24.00;62.70;;;;;;1838701;77;21042;-82
2023/01/01 11:42:33;;;;;;;22.67;15.70;;;24.00;62.80;;;;;;1856119;77;21069;-82
2023/01/01 11:45:33;;;;;;;23.05;16.30;;;23.90;63.00;;;;;;1856146;77;21136;-83
2023/01/01 11:48:04;;;;;;;21.45;15.45;;;23.90;63.00;;;;;;1854556;76;21053;-82
2023/01/01 11:50:39;;;;;;;23.65;16.73;;;23.90;63.00;;;;;;1856153;77;21513;-82
2023/01/01 11:53:28;;;;;;;21.42;16.15;;;23.90;63.20;;;;;;1825839;77;21578;-83
2023/01/01 11:56:18;;;;;;;22.48;17.10;;;23.90;63.20;;;;;;1837587;76;21103;-82
2023/01/01 11:59:06;;;;;;;23.10;17.25;;;23.80;63.30;;;;;;1827179;78;21097;-83
2023/01/01 12:01:40;;;;;;;20.25;15.95;;;23.80;63.50;;;;;;1790616;80;21140;-82
2023/01/01 12:04:17;;;;;;;23.30;16.35;;;23.90;63.70;;;;;;1827120;78;21165;-82
2023/01/01 12:07:07;;;;;;;23.57;16.15;;;23.80;63.50;;;;;;1826234;78;21655;-83
2023/01/01 12:09:39;;;;;;;;;;;23.80;63.60;;;;;;1866406;76;21140;-83
2023/01/01 12:12:19;;;;;;;24.80;16.55;;;23.80;63.70;;;;;;1894656;76;20183;-82
2023/01/01 12:15:05;;;;;;;22.05;16.02;;;23.80;63.80;;;;;;1856050;77;21120;-82
2023/01/01 12:17:38;;;;;;;21.80;15.95;;;23.70;63.80;;;;;;1855592;77;21136;-82
2023/01/01 12:20:35;;;;;;;26.17;17.33;;;23.70;63.90;;;;;;1856227;76;21054;-82
2023/01/01 12:23:07;;;;;;;21.95;16.60;;;23.70;64.00;;;;;;1855444;77;21136;-82
2023/01/01 12:25:43;;;;;;;22.17;16.65;;;23.70;64.10;;;;;;1856056;77;21137;-81
2023/01/01 12:28:37;;;;;;;23.00;16.25;;;23.70;64.10;;;;;;1869470;76;21133;-83
2023/01/01 12:31:26;;;;;;;24.92;16.35;;;23.70;64.20;;;;;;1873052;76;21240;-83
2023/01/01 12:34:19;;;;;;;23.65;18.02;;;23.70;64.60;;;;;;1901359;75;21071;-83
2023/01/01 12:37:07;;;;;;;26.55;17.37;;;23.60;64.30;;;;;;1859571;74;21621;-82
2023/01/01 12:39:46;;;;;;;23.95;17.65;;;23.60;64.30;;;;;;1911833;74;21079;-82
2023/01/01 12:42:32;;;;;;;23.60;17.80;;;23.60;64.40;;;;;;1820564;77;21080;-82
2023/01/01 12:45:22;;;;;;;23.62;16.97;;;23.60;64.40;;;;;;1892343;75;21068;-82
2023/01/01 12:48:13;;;;;;;28.25;18.40;;;23.60;64.40;;;;;;1902874;75;21768;-82
2023/01/01 12:51:07;;;;;;;26.57;18.55;;;23.60;64.40;;;;;;1902167;74;21055;-82
2023/01/01 12:53:56;;;;;;;27.15;18.17;;;23.50;64.40;;;;;;1879992;75;21140;-83
2023/01/01 12:56:44;;;;;;;28.07;19.42;;;23.50;64.50;;;;;;1859721;77;21099;-82
2023/01/01 12:59:26;;;;;;;30.00;18.52;;;23.50;64.40;;;;;;1901155;75;21094;-82
2023/01/01 13:02:00;;;;;;;27.32;18.25;;;23.50;64.40;;;;;;1856994;77;21083;-83
2023/01/01 13:04:32;;;;;;;25.90;18.40;;;23.50;64.60;;;;;;1885013;75;21120;-83
2023/01/01 13:07:05;;;;;;;25.17;19.10;;;23.40;64.50;;;;;;1897769;74;21527;-83
2023/01/01 13:09:43;;;;;;;26.90;19.60;;;23.40;64.50;;;;;;1911219;74;21184;-83
2023/01/01 13:12:20;;;;;;;28.90;18.82;;;23.40;64.50;;;;;;1909579;75;21260;-81
2023/01/01 13:14:51;;;;;;;24.18;18.05;;;23.40;64.50;;;;;;1899769;75;21201;-82
2023/01/01 13:17:24;;;;;;;26.50;18.98;;;23.40;64.70;;;;;;1899631;75;21205;-82
2023/01/01 13:20:13;;;;;;;26.07;17.98;;;23.40;64.70;;;;;;1898223;75;21217;-84
2023/01/01 13:22:46;;;;;;;26.57;17.92;;;23.40;64.70;;;;;;1894707;76;21056;-83
2023/01/01 13:25:20;;;;;;;24.30;17.87;;;23.30;64.60;;;;;;1894637;76;21084;-81
2023/01/01 13:28:05;;;;;;;26.17;18.27;;;23.30;64.50;;;;;;1894593;75;21190;-82
2023/01/01 13:30:41;;;;;;;27.73;18.77;;;23.30;64.60;;;;;;1921691;74;21507;-81
2023/01/01 13:33:19;;;;;;;25.25;18.57;;;23.20;64.40;;;;;;1935175;74;21111;-83
2023/01/01 13:36:10;;;;;;;28.07;18.87;;;23.20;64.80;;;;;;1934223;73;21103;-83
2023/01/01 13:38:51;;;;;;;25.12;17.80;;;23.20;64.60;;;;;;1906913;74;21515;-82